Time;durP1;ratioP1;P1;durP2;ratioP2;P2;SDS_P1;SDS_P2;PMS_P1;PMS_P2;Temp;Humidity;BMP_temperature;BMP_pressure;BME280_temperature;BME280_humidity;BME280_pressure;Samples;Min_cycle;Max_cycle;Signal;HPM_P1;HPM_P2
2022/07/24 00:01:34;;;;;;;3.15;2.83;;;16.10;99.90;;;;;;5063884;28;20157;-72
2022/07/24 00:04:00;;;;;;;5.50;3.28;;;16.10;99.90;;;;;;5070380;28;20040;-75
2022/07/24 00:06:26;;;;;;;5.03;3.20;;;16.10;99.90;;;;;;5070985;28;20742;-72
2022/07/24 00:08:51;;;;;;;3.90;3.55;;;16.10;99.90;;;;;;5063932;28;20054;-75
2022/07/24 00:11:17;;;;;;;4.72;3.55;;;16.00;99.90;;;;;;5073955;28;20040;-75
2022/07/24 00:13:43;;;;;;;6.13;3.70;;;16.00;99.90;;;;;;5077302;28;20211;-73
2022/07/24 00:16:09;;;;;;;4.40;3.80;;;16.00;99.90;;;;;;5085939;28;20586;-75
2022/07/24 00:18:35;;;;;;;3.55;3.25;;;16.00;99.90;;;;;;5073369;28;20156;-74
2022/07/24 00:21:00;;;;;;;4.35;3.13;;;16.00;99.90;;;;;;5076722;28;20048;-75
2022/07/24 00:23:26;;;;;;;4.78;3.50;;;15.90;99.90;;;;;;5076583;28;20062;-75
2022/07/24 00:25:53;;;;;;;4.93;3.30;;;15.90;99.90;;;;;;5077497;28;20086;-76
2022/07/24 00:28:20;;;;;;;5.10;3.30;;;15.90;99.90;;;;;;5076839;28;20044;-74
2022/07/24 00:30:45;;;;;;;4.65;3.70;;;15.90;99.90;;;;;;5085823;28;20055;-74
2022/07/24 00:33:11;;;;;;;3.40;3.03;;;15.90;99.90;;;;;;5079244;28;20040;-75
2022/07/24 00:35:37;;;;;;;5.47;3.63;;;15.90;99.90;;;;;;5077725;28;20070;-73
2022/07/24 00:38:03;;;;;;;4.72;2.97;;;15.90;99.90;;;;;;5076596;28;21188;-74
2022/07/24 00:40:29;;;;;;;5.00;3.55;;;15.90;99.90;;;;;;5076556;28;20044;-75
2022/07/24 00:42:56;;;;;;;4.22;3.47;;;15.90;99.90;;;;;;5076868;28;20048;-73
2022/07/24 00:45:22;;;;;;;4.00;3.60;;;15.90;99.90;;;;;;5077160;28;20097;-74
2022/07/24 00:47:48;;;;;;;7.75;4.15;;;15.90;99.90;;;;;;5077077;28;20055;-75
2022/07/24 00:50:14;;;;;;;5.90;3.50;;;15.90;99.90;;;;;;5078533;28;20040;-75
2022/07/24 00:52:40;;;;;;;3.42;3.08;;;15.90;99.90;;;;;;5076610;28;20457;-76
2022/07/24 00:55:06;;;;;;;6.43;3.72;;;15.90;99.90;;;;;;5091539;28;20919;-73
2022/07/24 00:57:32;;;;;;;4.85;3.88;;;15.90;99.90;;;;;;5079181;28;20130;-76
2022/07/24 00:59:58;;;;;;;4.85;3.85;;;15.90;99.90;;;;;;5075628;28;20060;-75
2022/07/24 01:02:24;;;;;;;4.45;4.03;;;15.90;99.90;;;;;;5077507;28;20083;-74
2022/07/24 01:04:50;;;;;;;5.85;3.50;;;15.90;99.90;;;;;;5075685;28;20150;-73
2022/07/24 01:07:17;;;;;;;3.53;3.22;;;15.90;99.90;;;;;;5077178;28;20126;-74
2022/07/24 01:09:43;;;;;;;6.28;4.38;;;15.80;99.90;;;;;;5076916;28;20464;-76
2022/07/24 01:12:09;;;;;;;4.35;3.55;;;15.80;99.90;;;;;;5077912;28;20162;-75
2022/07/24 01:14:35;;;;;;;4.35;3.53;;;15.80;99.90;;;;;;5076249;28;20044;-74
2022/07/24 01:17:01;;;;;;;4.60;3.47;;;15.80;99.90;;;;;;5074591;28;20476;-76
2022/07/24 01:19:27;;;;;;;6.03;4.22;;;15.80;99.90;;;;;;5078415;28;20714;-76
2022/07/24 01:21:53;;;;;;;3.95;3.55;;;15.70;99.90;;;;;;5076704;28;20040;-76
2022/07/24 01:24:20;;;;;;;6.43;4.18;;;15.70;99.90;;;;;;5076653;28;20067;-74
2022/07/24 01:26:47;;;;;;;5.35;3.67;;;15.60;99.90;;;;;;5077073;28;20052;-76
2022/07/24 01:29:14;;;;;;;4.93;3.88;;;15.60;99.90;;;;;;5078328;28;20079;-75
2022/07/24 01:31:40;;;;;;;3.97;3.20;;;15.50;99.90;;;;;;5077132;28;20055;-75
2022/07/24 01:34:06;;;;;;;5.13;3.42;;;15.50;99.90;;;;;;5077446;28;20121;-75
2022/07/24 01:36:32;;;;;;;4.93;4.15;;;15.50;99.90;;;;;;5075989;28;20048;-76
2022/07/24 01:38:58;;;;;;;4.60;3.60;;;15.50;99.90;;;;;;5077510;28;20656;-76
2022/07/24 01:41:24;;;;;;;4.35;3.78;;;15.40;99.90;;;;;;5076279;28;20075;-76
2022/07/24 01:43:50;;;;;;;4.88;3.55;;;15.40;99.90;;;;;;5077306;28;20794;-75
2022/07/24 01:46:15;;;;;;;6.35;3.63;;;15.30;99.90;;;;;;5076020;28;20115;-73
2022/07/24 01:48:43;;;;;;;7.53;3.58;;;15.30;99.90;;;;;;5075565;28;20122;-76
2022/07/24 01:51:09;;;;;;;5.40;4.40;;;15.20;99.90;;;;;;5076372;28;20688;-75
2022/07/24 01:53:35;;;;;;;5.20;3.70;;;15.10;99.90;;;;;;5060297;28;20530;-73
2022/07/24 01:56:01;;;;;;;6.15;4.53;;;15.10;99.90;;;;;;5074527;28;20763;-76
2022/07/24 01:58:27;;;;;;;8.00;3.33;;;15.00;99.90;;;;;;5076944;28;20056;-76
2022/07/24 02:00:53;;;;;;;4.13;3.42;;;15.00;99.90;;;;;;5073496;28;20056;-76
2022/07/24 02:03:19;;;;;;;6.30;4.55;;;14.90;99.90;;;;;;5076197;28;20852;-75
2022/07/24 02:05:45;;;;;;;6.07;4.07;;;14.90;99.90;;;;;;5076163;28;20044;-75
2022/07/24 02:08:11;;;;;;;4.93;3.65;;;14.80;99.90;;;;;;5075060;28;20055;-75
2022/07/24 02:10:37;;;;;;;6.03;4.03;;;14.80;99.90;;;;;;5069273;28;20047;-75
2022/07/24 02:13:03;;;;;;;6.82;4.15;;;14.80;99.90;;;;;;5074272;28;20035;-75
2022/07/24 02:15:29;;;;;;;4.22;3.50;;;14.80;99.90;;;;;;5072737;28;20044;-75
2022/07/24 02:17:58;;;;;;;5.25;4.18;;;14.80;99.90;;;;;;5073096;28;20052;-74
2022/07/24 02:20:24;;;;;;;5.05;4.07;;;14.80;99.90;;;;;;5076532;28;20127;-76
2022/07/24 02:22:50;;;;;;;6.28;3.75;;;14.80;99.90;;;;;;5075294;28;20032;-76
2022/07/24 02:25:16;;;;;;;5.18;4.15;;;14.80;99.90;;;;;;5075350;28;20055;-73
2022/07/24 02:27:42;;;;;;;4.70;3.97;;;14.80;99.90;;;;;;5077256;28;20086;-76
2022/07/24 02:30:14;;;;;;;4.63;4.07;;;14.80;99.90;;;;;;5077331;28;20685;-74
2022/07/24 02:32:40;;;;;;;5.22;3.95;;;14.90;99.90;;;;;;5074112;28;20892;-76
2022/07/24 02:35:06;;;;;;;3.97;3.55;;;14.90;99.90;;;;;;5075442;28;20047;-74
2022/07/24 02:37:35;;;;;;;5.15;4.20;;;14.80;99.90;;;;;;5075746;28;20050;-75
2022/07/24 02:40:00;;;;;;;5.22;3.92;;;14.80;99.90;;;;;;5076431;28;20055;-75
2022/07/24 02:42:26;;;;;;;5.07;3.97;;;14.80;99.90;;;;;;5074036;28;20052;-75
2022/07/24 02:44:51;;;;;;;5.07;4.53;;;14.90;99.90;;;;;;5074834;28;20093;-75
2022/07/24 02:47:17;;;;;;;5.28;4.70;;;14.90;99.90;;;;;;5070143;28;20043;-74
2022/07/24 02:49:43;;;;;;;6.63;4.47;;;14.80;99.90;;;;;;5075571;28;20056;-72
2022/07/24 02:52:08;;;;;;;6.03;4.72;;;14.80;99.90;;;;;;5076693;28;20047;-75
2022/07/24 02:54:34;;;;;;;6.00;4.57;;;14.70;99.90;;;;;;5074227;28;20048;-73
2022/07/24 02:57:00;;;;;;;5.88;4.32;;;14.70;99.90;;;;;;5075760;28;20044;-76
2022/07/24 02:59:25;;;;;;;6.60;4.22;;;14.70;99.90;;;;;;5075818;28;20056;-72
2022/07/24 03:01:51;;;;;;;5.32;4.50;;;14.70;99.90;;;;;;5080999;28;20079;-75
2022/07/24 03:04:17;;;;;;;6.97;4.50;;;14.60;99.90;;;;;;5075469;28;20047;-76
2022/07/24 03:06:42;;;;;;;5.88;4.10;;;14.60;99.90;;;;;;5076301;28;20477;-75
2022/07/24 03:09:08;;;;;;;5.18;3.53;;;14.70;99.90;;;;;;5072027;28;20824;-74
2022/07/24 03:11:34;;;;;;;6.53;4.95;;;14.60;99.90;;;;;;5075190;28;20048;-76
2022/07/24 03:13:59;;;;;;;8.25;5.20;;;14.60;99.90;;;;;;5075150;28;20044;-75
2022/07/24 03:16:25;;;;;;;5.32;4.50;;;14.60;99.90;;;;;;5074627;28;20043;-75
2022/07/24 03:18:50;;;;;;;5.63;5.00;;;14.60;99.90;;;;;;5080889;28;20511;-75
2022/07/24 03:21:17;;;;;;;6.65;4.97;;;14.60;99.90;;;;;;5074801;28;20086;-74
2022/07/24 03:23:43;;;;;;;7.28;5.00;;;14.60;99.90;;;;;;5079284;28;20048;-76
2022/07/24 03:26:09;;;;;;;6.05;4.95;;;14.60;99.90;;;;;;5073977;28;20047;-76
2022/07/24 03:28:35;;;;;;;6.43;5.07;;;14.60;99.90;;;;;;5073957;28;20117;-76
2022/07/24 03:31:01;;;;;;;6.60;4.68;;;14.60;99.90;;;;;;5072955;28;20047;-76
2022/07/24 03:33:28;;;;;;;5.97;4.82;;;14.60;99.90;;;;;;5074845;28;20055;-73
2022/07/24 03:35:54;;;;;;;6.35;4.45;;;14.60;99.90;;;;;;5076341;28;20055;-75
2022/07/24 03:38:20;;;;;;;6.35;4.00;;;14.50;99.90;;;;;;5072636;28;20059;-76
2022/07/24 03:40:45;;;;;;;9.15;5.43;;;14.60;99.90;;;;;;5074667;28;20074;-75
2022/07/24 03:43:11;;;;;;;7.18;4.78;;;14.60;99.90;;;;;;5076035;28;20044;-76
2022/07/24 03:45:38;;;;;;;6.63;5.18;;;14.60;99.90;;;;;;5073202;28;20048;-76
2022/07/24 03:48:04;;;;;;;5.80;4.70;;;14.60;99.90;;;;;;5075209;28;20083;-75
2022/07/24 03:50:30;;;;;;;4.75;4.15;;;14.60;99.90;;;;;;5073877;28;20147;-75
2022/07/24 03:52:56;;;;;;;6.32;4.97;;;14.60;99.90;;;;;;5074219;28;20548;-73
2022/07/24 03:55:21;;;;;;;5.15;3.80;;;14.70;99.90;;;;;;5072986;28;20856;-76
2022/07/24 03:57:47;;;;;;;5.65;4.38;;;14.70;99.90;;;;;;5076698;28;20387;-76
2022/07/24 04:00:13;;;;;;;7.70;5.35;;;14.70;99.90;;;;;;5084449;28;20039;-75
2022/07/24 04:02:39;;;;;;;7.82;5.10;;;14.80;99.90;;;;;;5074779;28;20067;-76
2022/07/24 04:05:08;;;;;;;8.18;4.72;;;14.80;99.90;;;;;;5075579;28;20271;-76
2022/07/24 04:07:35;;;;;;;5.25;3.65;;;14.80;99.90;;;;;;5082732;28;20502;-76
2022/07/24 04:10:01;;;;;;;8.65;5.47;;;14.90;99.90;;;;;;5076242;28;20062;-76
2022/07/24 04:12:27;;;;;;;8.60;5.95;;;14.80;99.90;;;;;;5075635;28;20044;-76
2022/07/24 04:14:53;;;;;;;8.43;4.70;;;14.80;99.90;;;;;;5072217;28;20051;-75
2022/07/24 04:17:18;;;;;;;7.85;5.57;;;14.90;99.90;;;;;;5081645;28;20063;-75
2022/07/24 04:19:44;;;;;;;7.55;4.93;;;14.90;99.90;;;;;;5075515;28;20073;-75
2022/07/24 04:22:10;;;;;;;12.15;5.57;;;14.90;99.90;;;;;;5084103;28;20647;-74
2022/07/24 04:24:35;;;;;;;8.00;5.38;;;14.90;99.90;;;;;;5072724;28;20056;-73
2022/07/24 04:27:01;;;;;;;6.85;5.10;;;14.90;99.90;;;;;;5067540;28;20941;-76
2022/07/24 04:29:26;;;;;;;5.82;4.75;;;14.90;99.90;;;;;;5074126;28;20113;-75
2022/07/24 04:31:52;;;;;;;10.80;4.75;;;15.10;99.90;;;;;;5071392;28;20044;-76
2022/07/24 04:34:18;;;;;;;6.95;4.50;;;14.90;99.90;;;;;;5071174;28;20151;-73
2022/07/24 04:36:43;;;;;;;6.00;4.85;;;15.00;99.90;;;;;;5072214;28;20583;-74
2022/07/24 04:39:09;;;;;;;5.38;4.43;;;15.00;99.90;;;;;;5079592;28;20044;-72
2022/07/24 04:41:35;;;;;;;4.63;4.05;;;15.00;99.90;;;;;;5089060;28;20909;-76
2022/07/24 04:44:01;;;;;;;7.20;4.97;;;15.00;99.90;;;;;;5075109;28;20079;-72
2022/07/24 04:46:27;;;;;;;8.80;4.90;;;15.00;99.90;;;;;;5073971;28;20048;-75
2022/07/24 04:48:53;;;;;;;7.97;6.25;;;15.10;99.90;;;;;;5073933;28;20044;-76
2022/07/24 04:51:18;;;;;;;8.88;5.18;;;15.10;99.90;;;;;;5075501;28;20075;-74
2022/07/24 04:53:44;;;;;;;14.23;5.80;;;15.10;99.90;;;;;;5074242;28;20048;-75
2022/07/24 04:56:10;;;;;;;5.78;4.70;;;15.20;99.90;;;;;;5075668;28;20074;-76
2022/07/24 04:58:35;;;;;;;8.57;5.15;;;15.20;99.90;;;;;;5073567;28;20062;-72
2022/07/24 05:01:01;;;;;;;6.10;4.78;;;15.20;99.90;;;;;;5074684;28;20048;-76
2022/07/24 05:03:27;;;;;;;8.07;4.93;;;15.30;99.90;;;;;;5072874;28;20871;-76
2022/07/24 05:05:53;;;;;;;7.20;5.28;;;15.30;99.90;;;;;;5076360;28;20164;-75
2022/07/24 05:08:18;;;;;;;9.00;5.13;;;15.40;99.90;;;;;;5061754;28;20468;-76
2022/07/24 05:10:44;;;;;;;5.90;4.40;;;15.50;99.90;;;;;;5076049;28;20047;-73
2022/07/24 05:13:10;;;;;;;6.10;4.90;;;15.50;99.90;;;;;;5073046;28;20074;-76
2022/07/24 05:15:35;;;;;;;5.03;4.28;;;15.60;99.90;;;;;;5076704;28;20105;-73
2022/07/24 05:18:01;;;;;;;6.25;5.18;;;15.60;99.90;;;;;;5085863;28;20050;-75
2022/07/24 05:20:27;;;;;;;5.28;4.28;;;15.60;99.90;;;;;;5074907;28;20243;-76
2022/07/24 05:22:52;;;;;;;9.85;4.30;;;15.70;99.90;;;;;;5074010;28;20051;-74
2022/07/24 05:25:18;;;;;;;5.50;4.57;;;15.80;99.90;;;;;;5074658;28;20052;-75
2022/07/24 05:27:44;;;;;;;7.47;5.30;;;15.90;99.90;;;;;;5072334;28;20043;-74
2022/07/24 05:30:10;;;;;;;7.47;5.18;;;16.10;99.90;;;;;;5091206;28;20051;-75
2022/07/24 05:32:36;;;;;;;6.22;4.40;;;16.20;99.90;;;;;;5071828;28;20079;-73
2022/07/24 05:35:02;;;;;;;4.90;4.47;;;16.30;99.90;;;;;;5075463;28;20131;-75
2022/07/24 05:37:28;;;;;;;7.28;5.28;;;16.50;99.90;;;;;;5073284;28;20051;-75
2022/07/24 05:39:54;;;;;;;6.93;4.75;;;16.70;99.90;;;;;;5074812;28;20054;-74
2022/07/24 05:42:19;;;;;;;5.18;4.68;;;17.00;99.90;;;;;;5074013;28;20040;-75
2022/07/24 05:44:45;;;;;;;5.45;4.90;;;17.30;99.90;;;;;;5072223;28;20048;-74
2022/07/24 05:47:10;;;;;;;6.07;5.18;;;17.50;99.90;;;;;;5069270;28;20055;-73
2022/07/24 05:49:36;;;;;;;6.93;5.25;;;17.80;99.90;;;;;;5074760;28;20043;-71
2022/07/24 05:52:02;;;;;;;6.05;4.50;;;18.10;99.90;;;;;;5080855;28;20288;-71
2022/07/24 05:54:28;;;;;;;5.55;4.53;;;18.20;99.90;;;;;;5073274;28;20046;-77
2022/07/24 05:56:54;;;;;;;7.55;5.35;;;18.40;99.90;;;;;;5081482;28;20059;-75
2022/07/24 05:59:19;;;;;;;7.05;5.75;;;18.50;99.90;;;;;;5073669;28;20051;-76
2022/07/24 06:01:45;;;;;;;5.38;4.88;;;18.50;99.90;;;;;;5069618;28;20047;-75
2022/07/24 06:04:10;;;;;;;6.32;5.10;;;18.60;99.90;;;;;;5074425;28;20144;-76
2022/07/24 06:06:36;;;;;;;5.47;4.95;;;18.50;99.90;;;;;;5074456;28;20105;-74
2022/07/24 06:09:03;;;;;;;5.43;4.78;;;18.40;99.90;;;;;;5071809;28;20052;-75
2022/07/24 06:11:29;;;;;;;7.65;5.53;;;18.40;99.90;;;;;;5076623;28;20113;-79
2022/07/24 06:13:55;;;;;;;7.53;5.70;;;18.50;99.90;;;;;;5071189;28;20044;-80
2022/07/24 06:16:20;;;;;;;8.48;6.05;;;18.60;99.90;;;;;;5075262;28;20048;-75
2022/07/24 06:18:46;;;;;;;9.27;6.93;;;18.70;99.90;;;;;;5072525;28;20054;-78
2022/07/24 06:21:12;;;;;;;6.35;5.40;;;18.90;99.90;;;;;;5074745;28;20077;-78
2022/07/24 06:23:38;;;;;;;7.50;5.50;;;19.00;99.90;;;;;;5073885;28;20072;-76
2022/07/24 06:26:03;;;;;;;8.98;5.53;;;19.20;99.90;;;;;;5073637;28;20855;-76
2022/07/24 06:28:29;;;;;;;6.93;5.20;;;19.40;99.90;;;;;;5075342;28;20043;-77
2022/07/24 06:30:55;;;;;;;9.68;6.20;;;19.70;99.90;;;;;;5072898;28;20987;-74
2022/07/24 06:33:21;;;;;;;8.40;6.72;;;19.90;99.90;;;;;;5072082;28;20052;-73
2022/07/24 06:35:47;;;;;;;9.30;6.55;;;20.10;99.90;;;;;;5070061;28;20043;-77
2022/07/24 06:38:12;;;;;;;9.68;7.13;;;20.30;99.90;;;;;;5071881;28;20154;-76
2022/07/24 06:40:38;;;;;;;10.35;6.55;;;20.70;99.90;;;;;;5069901;28;20047;-75
2022/07/24 06:43:04;;;;;;;12.15;7.90;;;21.60;99.90;;;;;;5068972;28;20083;-74
2022/07/24 06:45:32;;;;;;;9.35;6.68;;;22.60;99.90;;;;;;5071389;28;20040;-75
2022/07/24 06:47:59;;;;;;;8.55;6.32;;;23.10;99.90;;;;;;5074226;28;20056;-77
2022/07/24 06:50:25;;;;;;;12.38;7.03;;;23.60;99.90;;;;;;5072048;28;20040;-76
2022/07/24 06:52:51;;;;;;;8.77;6.85;;;23.70;99.90;;;;;;5074398;28;20051;-75
2022/07/24 06:55:16;;;;;;;8.35;6.55;;;23.90;99.90;;;;;;5073308;28;20056;-75
2022/07/24 06:57:42;;;;;;;9.68;7.30;;;24.40;99.90;;;;;;5082958;28;20077;-77
2022/07/24 07:00:09;;;;;;;8.20;7.22;;;25.00;99.90;;;;;;5073098;28;20602;-77
2022/07/24 07:02:36;;;;;;;9.65;6.82;;;25.40;99.90;;;;;;5071618;28;20059;-77
2022/07/24 07:05:02;;;;;;;9.05;6.68;;;25.90;99.90;;;;;;5073402;28;20298;-75
2022/07/24 07:07:28;;;;;;;10.27;6.70;;;26.20;99.30;;;;;;5074867;28;20540;-76
2022/07/24 07:09:53;;;;;;;13.00;8.38;;;26.80;96.60;;;;;;5071621;28;20048;-76
2022/07/24 07:12:19;;;;;;;9.60;8.10;;;27.10;96.70;;;;;;5076938;28;20043;-74
2022/07/24 07:14:45;;;;;;;12.85;7.63;;;26.90;96.60;;;;;;5069842;28;20582;-77
2022/07/24 07:17:11;;;;;;;8.07;6.93;;;26.80;96.30;;;;;;5076835;28;20714;-77
2022/07/24 07:19:36;;;;;;;9.18;8.13;;;27.30;96.50;;;;;;5078817;28;20218;-75
2022/07/24 07:22:02;;;;;;;8.07;6.22;;;27.30;95.80;;;;;;5071365;28;20048;-77
2022/07/24 07:24:27;;;;;;;11.48;7.88;;;27.50;95.80;;;;;;5084601;28;20055;-75
2022/07/24 07:26:53;;;;;;;11.13;7.35;;;28.10;95.00;;;;;;5070621;28;20613;-77
2022/07/24 07:29:19;;;;;;;10.90;7.97;;;28.30;94.60;;;;;;5071883;28;20272;-74
2022/07/24 07:31:45;;;;;;;9.48;8.10;;;28.00;94.30;;;;;;5081599;28;20047;-76
2022/07/24 07:34:10;;;;;;;8.98;7.50;;;28.20;92.90;;;;;;5072161;28;20771;-76
2022/07/24 07:36:37;;;;;;;10.63;8.68;;;28.50;92.60;;;;;;5072218;28;20078;-75
2022/07/24 07:39:02;;;;;;;11.02;8.05;;;28.60;93.30;;;;;;5078121;28;20064;-77
2022/07/24 07:41:28;;;;;;;10.25;8.52;;;29.20;92.50;;;;;;5075382;28;20058;-77
2022/07/24 07:43:54;;;;;;;9.10;8.15;;;29.10;92.00;;;;;;5073525;28;20488;-78
2022/07/24 07:46:19;;;;;;;14.55;8.32;;;29.10;91.60;;;;;;5075540;28;20159;-76
2022/07/24 07:48:45;;;;;;;10.02;8.30;;;29.40;90.00;;;;;;5073512;28;20151;-78
2022/07/24 07:51:11;;;;;;;10.55;7.65;;;29.40;91.10;;;;;;5073145;28;20059;-75
2022/07/24 07:53:36;;;;;;;11.00;8.15;;;28.70;91.10;;;;;;5069893;28;20108;-76
2022/07/24 07:56:03;;;;;;;8.50;7.38;;;28.10;91.40;;;;;;5072432;28;20511;-77
2022/07/24 07:58:29;;;;;;;10.40;7.47;;;27.60;91.70;;;;;;5073145;28;20055;-77
2022/07/24 08:00:55;;;;;;;10.30;7.03;;;27.10;91.80;;;;;;5077801;28;20067;-77
2022/07/24 08:03:21;;;;;;;34.95;7.88;;;26.70;92.10;;;;;;5073517;28;20036;-77
2022/07/24 08:05:46;;;;;;;7.50;5.47;;;26.40;91.80;;;;;;5077461;28;20043;-77
2022/07/24 08:08:12;;;;;;;6.50;5.20;;;26.30;91.90;;;;;;5074967;28;20881;-76
2022/07/24 08:10:38;;;;;;;7.68;5.12;;;26.80;92.10;;;;;;4716441;28;10000952;-77
2022/07/24 08:13:04;;;;;;;6.45;5.00;;;27.90;91.50;;;;;;4717272;28;9999920;-77
2022/07/24 08:15:30;;;;;;;4.32;3.90;;;28.80;90.40;;;;;;5071651;28;20044;-79
2022/07/24 08:17:57;;;;;;;5.95;3.92;;;29.50;89.80;;;;;;5069606;28;20885;-75
2022/07/24 08:20:25;;;;;;;4.45;3.70;;;30.10;88.50;;;;;;5069985;28;20048;-77
2022/07/24 08:22:51;;;;;;;3.08;2.80;;;30.40;87.10;;;;;;5071401;28;20081;-78
2022/07/24 08:25:17;;;;;;;5.25;3.40;;;30.20;86.20;;;;;;5070888;28;20051;-76
2022/07/24 08:27:43;;;;;;;4.70;3.47;;;30.10;85.60;;;;;;5070504;28;20164;-78
2022/07/24 08:30:09;;;;;;;4.07;3.45;;;29.20;84.40;;;;;;5072090;28;20772;-80
2022/07/24 08:32:36;;;;;;;5.82;3.28;;;28.80;82.10;;;;;;5071222;28;20051;-79
2022/07/24 08:35:02;;;;;;;5.55;2.80;;;28.80;85.50;;;;;;5078432;28;20117;-75
2022/07/24 08:37:27;;;;;;;5.72;3.25;;;29.10;85.60;;;;;;5074225;28;20847;-76
2022/07/24 08:39:54;;;;;;;3.05;2.72;;;29.00;85.20;;;;;;5083951;28;20047;-80
2022/07/24 08:42:20;;;;;;;3.38;3.08;;;29.00;85.60;;;;;;5072783;28;20054;-75
2022/07/24 08:44:47;;;;;;;3.17;2.88;;;28.80;85.20;;;;;;5077195;28;20047;-75
2022/07/24 08:47:15;;;;;;;5.03;3.08;;;28.80;84.60;;;;;;5075804;28;20051;-75
2022/07/24 08:49:44;;;;;;;4.47;2.80;;;29.00;84.20;;;;;;5073085;28;20119;-73
2022/07/24 08:52:10;;;;;;;2.90;2.70;;;29.10;85.00;;;;;;5075535;28;20075;-75
2022/07/24 08:54:36;;;;;;;3.97;3.08;;;29.00;84.70;;;;;;5076197;28;20746;-73
2022/07/24 08:57:03;;;;;;;3.80;2.90;;;28.60;83.10;;;;;;5073150;28;20044;-73
2022/07/24 08:59:30;;;;;;;3.65;2.70;;;28.50;84.30;;;;;;5073961;28;20161;-75
2022/07/24 09:01:55;;;;;;;4.25;2.80;;;28.40;85.40;;;;;;5075885;28;20159;-72
2022/07/24 09:05:00;;;;;;;4.15;3.20;;;28.30;85.40;;;;;;5073190;28;20157;-76
2022/07/24 09:07:28;;;;;;;2.92;2.63;;;28.40;84.50;;;;;;5028265;28;20113;-74
2022/07/24 09:09:58;;;;;;;3.08;2.85;;;28.30;83.90;;;;;;5073575;28;20055;-74
2022/07/24 09:12:24;;;;;;;4.75;3.70;;;28.60;85.20;;;;;;5072296;28;20055;-75
2022/07/24 09:14:50;;;;;;;3.53;3.03;;;29.30;84.30;;;;;;5075181;28;20032;-75
2022/07/24 09:17:19;;;;;;;3.53;3.15;;;29.90;84.60;;;;;;5074838;28;20039;-75
2022/07/24 09:19:52;;;;;;;5.30;3.28;;;30.10;83.40;;;;;;5074816;28;20412;-75
2022/07/24 09:22:38;;;;;;;3.65;2.83;;;29.80;81.00;;;;;;5072667;28;20075;-75
2022/07/24 09:25:07;;;;;;;4.47;3.00;;;29.60;82.50;;;;;;4725684;28;10000560;-75
2022/07/24 09:27:34;;;;;;;4.63;3.20;;;29.60;83.70;;;;;;5075357;28;20044;-74
2022/07/24 09:30:00;;;;;;;3.67;2.75;;;29.40;81.60;;;;;;5076706;28;20495;-76
2022/07/24 09:32:26;;;;;;;5.05;2.78;;;29.00;82.90;;;;;;5074722;28;20547;-73
2022/07/24 09:34:53;;;;;;;3.55;2.67;;;28.70;83.90;;;;;;5074974;28;20115;-77
2022/07/24 09:37:20;;;;;;;3.03;2.80;;;28.50;83.90;;;;;;5078118;28;20058;-76
2022/07/24 09:39:46;;;;;;;3.50;2.92;;;28.70;83.80;;;;;;5075802;28;20040;-75
2022/07/24 09:42:12;;;;;;;3.72;2.88;;;29.10;83.20;;;;;;5076495;28;20044;-77
2022/07/24 09:44:39;;;;;;;3.53;2.80;;;29.20;82.80;;;;;;5069419;28;20452;-77
2022/07/24 09:47:07;;;;;;;4.20;2.70;;;29.30;82.80;;;;;;5084992;28;20210;-76
2022/07/24 09:49:34;;;;;;;3.40;2.65;;;29.90;82.90;;;;;;5076264;28;20044;-77
2022/07/24 09:52:19;;;;;;;3.05;2.85;;;30.40;82.70;;;;;;5077462;28;20098;-77
2022/07/24 09:54:48;;;;;;;2.83;2.63;;;30.70;80.30;;;;;;5088826;28;20444;-74
2022/07/24 09:57:26;;;;;;;3.33;2.72;;;30.70;80.60;;;;;;5076059;28;20059;-75
2022/07/24 09:59:57;;;;;;;2.75;2.17;;;31.00;80.90;;;;;;5087440;28;20429;-77
2022/07/24 10:02:29;;;;;;;5.03;2.25;;;31.00;80.50;;;;;;5087417;28;20963;-74
2022/07/24 10:04:55;;;;;;;;;;;31.00;79.70;;;;;;5078376;28;20083;-78
2022/07/24 10:07:23;;;;;;;5.47;2.67;;;30.80;79.40;;;;;;5076315;28;19924;-77
2022/07/24 10:09:50;;;;;;;3.97;2.65;;;31.10;81.80;;;;;;5077501;28;20681;-77
2022/07/24 10:12:21;;;;;;;3.33;2.67;;;31.40;81.80;;;;;;5074906;28;20551;-77
2022/07/24 10:14:49;;;;;;;5.07;2.53;;;31.60;81.00;;;;;;5077657;28;20048;-76
2022/07/24 10:17:15;;;;;;;2.97;2.67;;;31.70;79.70;;;;;;5076779;28;20123;-78
2022/07/24 10:19:49;;;;;;;3.15;2.50;;;32.10;80.70;;;;;;5078600;28;20955;-77
2022/07/24 10:22:17;;;;;;;4.47;2.80;;;32.30;79.50;;;;;;5077618;28;20498;-76
2022/07/24 10:24:58;;;;;;;2.88;2.25;;;32.20;80.10;;;;;;5073547;28;20055;-77
2022/07/24 10:27:26;;;;;;;3.28;2.78;;;32.40;77.90;;;;;;5076632;28;20265;-73
2022/07/24 10:29:54;;;;;;;3.13;2.72;;;32.30;79.40;;;;;;5075857;28;20938;-76
2022/07/24 10:32:24;;;;;;;4.50;3.10;;;32.20;78.40;;;;;;5073623;28;20055;-74
2022/07/24 10:35:13;;;;;;;5.03;2.92;;;32.10;77.00;;;;;;5075578;28;20051;-76
2022/07/24 10:37:45;;;;;;;3.92;2.55;;;32.00;76.80;;;;;;5076524;28;20090;-76
2022/07/24 10:40:31;;;;;;;3.70;2.47;;;31.60;76.30;;;;;;5077214;28;20048;-76
2022/07/24 10:43:05;;;;;;;4.00;2.30;;;31.30;76.50;;;;;;5074729;28;20167;-74
2022/07/24 10:45:32;;;;;;;2.63;2.40;;;31.20;76.00;;;;;;5085622;28;20048;-76
2022/07/24 10:48:18;;;;;;;3.35;2.70;;;30.80;77.60;;;;;;5073215;28;20052;-75
2022/07/24 10:51:06;;;;;;;2.78;2.47;;;30.90;78.00;;;;;;5075268;28;20124;-75
2022/07/24 10:53:37;;;;;;;2.83;2.25;;;30.90;76.30;;;;;;5075800;28;20539;-76
2022/07/24 10:56:25;;;;;;;2.50;2.30;;;30.50;76.70;;;;;;5076486;28;20056;-76
2022/07/24 10:59:07;;;;;;;2.50;2.30;;;30.20;76.80;;;;;;5073700;28;20126;-77
2022/07/24 11:01:39;;;;;;;3.58;2.75;;;30.10;78.20;;;;;;5074774;28;20048;-76
2022/07/24 11:04:20;;;;;;;4.68;2.42;;;30.10;78.20;;;;;;5075603;28;20105;-76
2022/07/24 11:06:51;;;;;;;3.28;2.38;;;29.90;78.20;;;;;;5074838;28;20385;-75
2022/07/24 11:09:20;;;;;;;4.38;3.55;;;29.70;79.50;;;;;;5077294;28;20148;-74
2022/07/24 11:11:52;;;;;;;4.20;2.78;;;29.50;79.50;;;;;;5075070;28;20201;-76
2022/07/24 11:14:36;;;;;;;3.20;2.70;;;29.40;78.60;;;;;;5076654;28;20044;-75
2022/07/24 11:17:40;;;;;;;4.10;2.50;;;29.40;78.10;;;;;;5065388;28;20048;-77
2022/07/24 11:20:14;;;;;;;4.60;2.95;;;29.60;78.80;;;;;;5075967;28;20044;-77
2022/07/24 11:22:52;;;;;;;3.53;2.75;;;29.60;78.50;;;;;;5076871;28;20048;-73
2022/07/24 11:25:26;;;;;;;3.60;2.88;;;29.70;78.80;;;;;;5076717;28;20070;-75
2022/07/24 11:27:58;;;;;;;2.65;2.45;;;30.00;79.70;;;;;;5073488;28;20197;-76
2022/07/24 11:30:27;;;;;;;3.00;2.70;;;30.10;79.20;;;;;;5075184;28;20048;-74
2022/07/24 11:32:53;;;;;;;7.15;3.05;;;30.10;79.20;;;;;;5074382;28;20561;-76
2022/07/24 11:35:27;;;;;;;3.15;2.58;;;30.20;78.40;;;;;;5075852;28;20048;-76
2022/07/24 11:37:53;;;;;;;12.30;2.90;;;29.90;76.40;;;;;;5078682;28;20470;-77
2022/07/24 11:40:21;;;;;;;3.20;2.80;;;29.90;78.00;;;;;;5084026;28;20827;-76
2022/07/24 11:42:53;;;;;;;3.15;2.83;;;29.90;78.30;;;;;;5075111;28;20917;-75
2022/07/24 11:45:19;;;;;;;4.50;2.45;;;30.00;78.10;;;;;;5075960;28;20044;-75
2022/07/24 11:47:45;;;;;;;3.72;2.60;;;30.00;78.30;;;;;;5086543;28;20052;-76
2022/07/24 11:50:11;;;;;;;3.38;2.88;;;30.00;77.70;;;;;;5077113;28;20048;-76
2022/07/24 11:52:40;;;;;;;3.65;2.47;;;30.00;78.00;;;;;;5073889;28;20085;-73
2022/07/24 11:55:09;;;;;;;4.82;2.65;;;30.00;77.50;;;;;;5074497;28;20044;-76
2022/07/24 11:57:38;;;;;;;3.97;2.97;;;30.00;76.90;;;;;;5076090;28;20052;-76
2022/07/24 12:00:09;;;;;;;2.80;2.60;;;30.00;76.70;;;;;;5075310;28;20063;-77
2022/07/24 12:02:35;;;;;;;3.70;2.70;;;30.20;77.50;;;;;;5074613;28;20101;-76
2022/07/24 12:05:01;;;;;;;2.72;2.47;;;30.10;76.60;;;;;;5076960;28;20052;-76
2022/07/24 12:07:26;;;;;;;5.35;3.15;;;29.90;76.40;;;;;;5076566;28;20062;-76
2022/07/24 12:10:00;;;;;;;3.33;3.03;;;29.90;76.40;;;;;;5079049;28;20107;-76
2022/07/24 12:12:29;;;;;;;3.50;2.45;;;30.00;78.50;;;;;;5074784;28;20044;-74
2022/07/24 12:15:07;;;;;;;4.35;2.67;;;30.00;76.60;;;;;;5076047;28;20773;-76
2022/07/24 12:18:06;;;;;;;3.58;2.17;;;30.00;76.60;;;;;;5075434;28;20047;-76
2022/07/24 12:20:31;;;;;;;3.88;2.50;;;30.10;76.80;;;;;;5073369;28;20047;-74
2022/07/24 12:22:59;;;;;;;2.63;2.42;;;30.20;77.20;;;;;;5074224;28;20052;-74
2022/07/24 12:25:25;;;;;;;3.15;2.78;;;30.30;77.00;;;;;;5072734;28;20064;-77
2022/07/24 12:28:11;;;;;;;3.83;2.28;;;30.30;76.40;;;;;;5077031;28;20050;-74
2022/07/24 12:30:49;;;;;;;3.00;2.70;;;30.20;75.20;;;;;;5077436;28;20215;-72
2022/07/24 12:33:14;;;;;;;3.50;2.85;;;30.20;76.80;;;;;;5066176;28;20060;-74
2022/07/24 12:35:53;;;;;;;4.65;3.08;;;30.30;77.00;;;;;;5074597;28;20051;-75
2022/07/24 12:38:30;;;;;;;4.20;2.88;;;30.20;76.10;;;;;;5074932;28;20052;-73
2022/07/24 12:41:13;;;;;;;3.17;2.67;;;30.20;76.80;;;;;;5075499;28;20429;-75
2022/07/24 12:43:51;;;;;;;4.57;2.60;;;30.20;76.50;;;;;;5074690;28;20048;-72
2022/07/24 12:46:18;;;;;;;3.42;2.70;;;30.10;75.50;;;;;;5076517;28;20167;-72
2022/07/24 12:48:58;;;;;;;4.63;2.60;;;30.40;76.90;;;;;;5075359;28;20194;-74